Terminal Aerodrome Forecast
Issued by NWS Charleston, WV

Current Version | Previous Version | Text Only | Print | Product List | Glossary Off
Versions: 1 2 3 4 5 6 7 8 9 10 11 12 13 14 15 16 17 18 19 20 21 22 23 24

915
FTUS41 KRLX 250539
TAFHTS
TAF
KHTS 250539Z 2506/2606 00000KT P6SM SCT250
     FM250800 00000KT 3SM BR SCT002
     FM251200 VRB03KT P6SM SCT035 BKN150
     FM252000 26005KT P6SM VCTS BKN050CB
     FM260200 VRB03KT 6SM SHRA BR VCTS BKN050CB=

USA.gov is the U.S. government's official web portal to all federal, state and local government web resources and services.